createdAt,value
2018-05-31T00:00:25.180Z,99.90
2018-05-31T00:02:52.626Z,99.90
2018-05-31T00:05:20.078Z,99.90
2018-05-31T00:07:47.520Z,99.90
2018-05-31T00:10:15.724Z,99.90
2018-05-31T00:12:43.279Z,99.80
2018-05-31T00:15:10.718Z,99.50
2018-05-31T00:17:38.945Z,99.40
2018-05-31T00:20:06.428Z,99.10
2018-05-31T00:22:33.876Z,99.00
2018-05-31T00:25:01.315Z,99.10
2018-05-31T00:27:28.908Z,99.10
2018-05-31T00:29:56.385Z,99.20
2018-05-31T00:32:24.853Z,99.40
2018-05-31T00:34:52.313Z,99.50
2018-05-31T00:37:19.781Z,99.70
2018-05-31T00:39:47.248Z,99.80
2018-05-31T00:42:14.693Z,99.90
2018-05-31T00:44:42.156Z,99.90
2018-05-31T00:47:09.609Z,99.90
2018-05-31T00:49:37.091Z,99.90
2018-05-31T00:52:04.538Z,99.90
2018-05-31T00:54:31.976Z,99.90
2018-05-31T00:56:59.459Z,99.90
2018-05-31T00:59:26.906Z,99.90
2018-05-31T01:01:54.357Z,99.90
2018-05-31T01:04:21.803Z,99.90
2018-05-31T01:06:49.263Z,99.90
2018-05-31T01:09:16.700Z,99.90
2018-05-31T01:11:44.940Z,99.90
2018-05-31T01:14:12.380Z,99.90
2018-05-31T01:16:39.942Z,99.90
2018-05-31T01:19:07.387Z,99.90
2018-05-31T01:21:34.844Z,99.90
2018-05-31T01:24:02.308Z,99.90
2018-05-31T01:26:30.528Z,99.90
2018-05-31T01:28:58.477Z,99.90
2018-05-31T01:31:25.930Z,99.90
2018-05-31T01:33:53.393Z,99.90
2018-05-31T01:36:20.866Z,99.90
2018-05-31T01:38:48.338Z,99.90
2018-05-31T01:41:16.541Z,99.90
2018-05-31T01:43:43.996Z,99.90
2018-05-31T01:46:11.439Z,99.90
2018-05-31T01:48:38.938Z,99.90
2018-05-31T01:51:06.407Z,99.90
2018-05-31T01:53:33.847Z,99.90
2018-05-31T01:56:01.310Z,99.90
2018-05-31T01:58:28.752Z,99.90
2018-05-31T02:00:56.497Z,99.90
2018-05-31T02:03:23.946Z,99.90
2018-05-31T02:05:54.209Z,99.90
2018-05-31T02:08:22.555Z,99.90
2018-05-31T02:10:49.990Z,99.90
2018-05-31T02:13:17.647Z,99.90
2018-05-31T02:15:45.099Z,99.90
2018-05-31T02:18:13.312Z,99.90
2018-05-31T02:20:40.769Z,99.90
2018-05-31T02:23:08.216Z,99.90
2018-05-31T02:25:35.679Z,99.90
2018-05-31T02:28:03.123Z,99.90
2018-05-31T02:30:31.341Z,99.90
2018-05-31T02:32:58.782Z,99.90
2018-05-31T02:35:26.250Z,99.90
2018-05-31T02:37:53.708Z,99.90
2018-05-31T02:40:22.601Z,99.90
2018-05-31T02:42:50.044Z,99.90
2018-05-31T02:45:17.514Z,99.90
2018-05-31T02:47:44.982Z,99.90
2018-05-31T02:50:12.685Z,99.90
2018-05-31T02:52:40.133Z,99.90
2018-05-31T02:55:07.579Z,99.90
2018-05-31T02:57:35.040Z,99.90
2018-05-31T03:00:02.487Z,99.90
2018-05-31T03:02:29.929Z,99.90
2018-05-31T03:04:57.379Z,99.90
2018-05-31T03:07:25.622Z,99.90
2018-05-31T03:09:53.090Z,99.90
2018-05-31T03:12:20.531Z,99.90
2018-05-31T03:14:47.995Z,99.90
2018-05-31T03:17:15.434Z,99.90
2018-05-31T03:19:42.906Z,99.90
2018-05-31T03:22:10.577Z,99.90
2018-05-31T03:24:38.041Z,99.90
2018-05-31T03:27:05.494Z,99.90
2018-05-31T03:29:32.939Z,99.90
2018-05-31T03:32:00.384Z,99.90
2018-05-31T03:34:27.840Z,99.90
2018-05-31T03:36:55.276Z,99.90
2018-05-31T03:39:22.717Z,99.90
2018-05-31T03:41:50.172Z,99.90
2018-05-31T03:44:17.609Z,99.90
2018-05-31T03:46:45.059Z,99.90
2018-05-31T03:49:12.505Z,99.90
2018-05-31T03:51:40.271Z,99.90
2018-05-31T03:54:07.712Z,99.90
2018-05-31T03:56:35.923Z,99.90
2018-05-31T03:59:04.314Z,99.90
2018-05-31T04:01:32.364Z,99.90
2018-05-31T04:03:59.801Z,99.90
2018-05-31T04:06:27.261Z,99.90
2018-05-31T04:08:54.709Z,99.90
2018-05-31T04:11:22.482Z,99.90
2018-05-31T04:13:49.959Z,99.90
2018-05-31T04:16:17.392Z,99.90
2018-05-31T04:18:44.844Z,99.90
2018-05-31T04:21:12.441Z,99.90
2018-05-31T04:23:40.655Z,99.90
2018-05-31T04:26:08.114Z,99.90
2018-05-31T04:28:35.990Z,99.90
2018-05-31T04:31:03.454Z,99.90
2018-05-31T04:33:30.914Z,99.90
2018-05-31T04:35:58.364Z,99.90
2018-05-31T04:38:25.825Z,99.90
2018-05-31T04:40:53.296Z,99.90
2018-05-31T04:43:20.779Z,99.90
2018-05-31T04:45:48.252Z,99.90
2018-05-31T04:48:15.695Z,99.90
2018-05-31T04:50:43.141Z,99.90
2018-05-31T04:53:11.281Z,99.90
2018-05-31T04:55:39.495Z,99.90
2018-05-31T04:58:06.937Z,99.90
2018-05-31T05:00:34.377Z,99.90
2018-05-31T05:03:02.632Z,99.90
2018-05-31T05:05:30.049Z,99.90
2018-05-31T05:07:57.509Z,99.90
2018-05-31T05:10:24.974Z,99.90
2018-05-31T05:12:52.437Z,99.90
2018-05-31T05:15:19.905Z,99.90
2018-05-31T05:17:47.345Z,99.40
2018-05-31T05:20:14.814Z,99.10
2018-05-31T05:22:42.265Z,99.10
2018-05-31T05:25:09.720Z,99.10
2018-05-31T05:27:37.174Z,98.80
2018-05-31T05:30:04.655Z,98.70
2018-05-31T05:32:32.503Z,98.80
2018-05-31T05:35:00.883Z,98.60
2018-05-31T05:37:29.094Z,98.60
2018-05-31T05:39:56.560Z,98.60
2018-05-31T05:42:25.270Z,98.50
2018-05-31T05:44:52.692Z,98.30
2018-05-31T05:47:20.169Z,98.50
2018-05-31T05:49:47.648Z,98.20
2018-05-31T05:52:15.121Z,98.20
2018-05-31T05:54:42.573Z,98.10
2018-05-31T05:57:10.037Z,97.80
2018-05-31T05:59:37.501Z,97.60
2018-05-31T06:02:04.941Z,97.20
2018-05-31T06:04:32.430Z,96.60
2018-05-31T06:06:59.865Z,96.10
2018-05-31T06:09:27.385Z,95.50
2018-05-31T06:11:54.825Z,95.70
2018-05-31T06:14:23.048Z,95.60
2018-05-31T06:16:50.500Z,95.60
2018-05-31T06:19:17.960Z,95.30
2018-05-31T06:21:45.427Z,94.50
2018-05-31T06:24:12.876Z,94.40
2018-05-31T06:26:40.370Z,94.00
2018-05-31T06:29:07.823Z,93.80
2018-05-31T06:31:35.290Z,93.40
2018-05-31T06:34:02.760Z,92.60
2018-05-31T06:36:30.200Z,92.50
2018-05-31T06:38:57.701Z,92.50
2018-05-31T06:41:25.169Z,92.30
2018-05-31T06:43:53.405Z,91.00
2018-05-31T06:46:20.848Z,91.00
2018-05-31T06:48:48.288Z,90.70
2018-05-31T06:51:15.754Z,89.60
2018-05-31T06:53:43.195Z,87.60
2018-05-31T06:56:11.439Z,81.80
2018-05-31T06:58:38.916Z,81.70
2018-05-31T07:01:06.418Z,79.60
2018-05-31T07:03:33.859Z,76.30
2018-05-31T07:06:02.067Z,72.50
2018-05-31T07:08:29.519Z,72.40
2018-05-31T07:10:57.310Z,72.20
2018-05-31T07:13:24.755Z,74.30
2018-05-31T07:15:52.208Z,72.90
2018-05-31T07:18:19.661Z,71.40
2018-05-31T07:20:47.098Z,67.80
2018-05-31T07:23:15.321Z,65.70
2018-05-31T07:25:47.838Z,65.60
2018-05-31T07:28:19.364Z,67.90
2018-05-31T07:30:47.726Z,70.80
2018-05-31T07:33:15.193Z,72.40
2018-05-31T07:35:42.660Z,71.70
2018-05-31T07:38:10.109Z,69.50
2018-05-31T07:40:37.589Z,67.10
2018-05-31T07:43:05.070Z,66.40
2018-05-31T07:45:32.509Z,66.30
2018-05-31T07:47:59.968Z,67.00
2018-05-31T07:50:27.412Z,60.00
2018-05-31T07:52:54.856Z,61.00
2018-05-31T07:55:22.350Z,59.60
2018-05-31T07:57:49.797Z,59.60
2018-05-31T08:00:17.277Z,59.40
2018-05-31T08:02:44.739Z,59.60
2018-05-31T08:05:12.188Z,58.80
2018-05-31T08:07:39.639Z,57.40
2018-05-31T08:10:07.117Z,57.60
2018-05-31T08:12:35.333Z,54.60
2018-05-31T08:15:03.582Z,55.30
2018-05-31T08:17:31.017Z,55.30
2018-05-31T08:19:58.468Z,52.70
2018-05-31T08:22:26.435Z,53.90
2018-05-31T08:24:53.943Z,53.90
2018-05-31T08:27:21.873Z,55.40
2018-05-31T08:29:49.708Z,54.80
2018-05-31T08:32:17.181Z,52.60
2018-05-31T08:34:45.405Z,52.10
2018-05-31T08:37:12.877Z,52.10
2018-05-31T08:39:40.322Z,49.90
2018-05-31T08:42:07.803Z,50.90
2018-05-31T08:44:35.272Z,50.00
2018-05-31T08:47:02.730Z,48.50
2018-05-31T08:49:30.327Z,47.90
2018-05-31T08:51:58.533Z,46.30
2018-05-31T08:54:26.012Z,46.30
2018-05-31T08:56:53.481Z,49.20
2018-05-31T08:59:21.805Z,47.30
2018-05-31T09:01:50.036Z,46.80
2018-05-31T09:04:17.548Z,46.70
2018-05-31T09:06:44.985Z,45.20
2018-05-31T09:09:12.441Z,45.80
2018-05-31T09:11:39.901Z,45.10
2018-05-31T09:14:07.370Z,47.40
2018-05-31T09:16:35.683Z,43.40
2018-05-31T09:19:03.168Z,43.40
2018-05-31T09:21:30.633Z,44.40
2018-05-31T09:23:58.302Z,43.70
2018-05-31T09:26:25.792Z,42.50
2018-05-31T09:28:53.346Z,42.10
2018-05-31T09:31:21.366Z,43.10
2018-05-31T09:33:49.657Z,43.40
2018-05-31T09:36:17.396Z,42.40
2018-05-31T09:38:45.631Z,44.60
2018-05-31T09:41:13.085Z,44.60
2018-05-31T09:43:40.524Z,42.20
2018-05-31T09:46:08.738Z,41.60
2018-05-31T09:48:36.191Z,41.50
2018-05-31T09:51:03.635Z,42.90
2018-05-31T09:53:31.093Z,40.10
2018-05-31T09:55:58.533Z,41.00
2018-05-31T09:58:26.007Z,42.60
2018-05-31T10:00:53.567Z,42.00
2018-05-31T10:03:21.027Z,42.50
2018-05-31T10:05:48.539Z,41.70
2018-05-31T10:08:16.025Z,42.00
2018-05-31T10:10:43.549Z,41.40
2018-05-31T10:13:12.373Z,41.30
2018-05-31T10:15:40.617Z,41.50
2018-05-31T10:18:08.077Z,41.60
2018-05-31T10:20:35.520Z,42.10
2018-05-31T10:23:02.986Z,39.80
2018-05-31T10:25:30.425Z,39.70
2018-05-31T10:27:57.890Z,40.70
2018-05-31T10:30:26.213Z,40.00
2018-05-31T10:32:53.670Z,40.60
2018-05-31T10:35:21.129Z,40.00
2018-05-31T10:37:48.606Z,40.20
2018-05-31T10:40:16.114Z,39.90
2018-05-31T10:42:43.642Z,40.20
2018-05-31T10:45:11.883Z,39.20
2018-05-31T10:47:39.369Z,39.20
2018-05-31T10:50:06.827Z,37.90
2018-05-31T10:52:35.059Z,38.80
2018-05-31T10:55:02.494Z,38.30
2018-05-31T10:57:29.947Z,38.40
2018-05-31T10:59:57.379Z,39.60
2018-05-31T11:02:24.848Z,40.40
2018-05-31T11:04:53.268Z,38.80
2018-05-31T11:07:20.742Z,37.90
2018-05-31T11:09:48.233Z,38.80
2018-05-31T11:12:15.663Z,38.30
2018-05-31T11:14:43.116Z,38.20
2018-05-31T11:17:10.615Z,38.50
2018-05-31T11:19:38.819Z,36.10
2018-05-31T11:22:07.093Z,37.00
2018-05-31T11:24:34.568Z,37.00
2018-05-31T11:27:02.025Z,36.30
2018-05-31T11:29:30.244Z,35.40
2018-05-31T11:31:57.708Z,35.40
2018-05-31T11:34:25.188Z,37.00
2018-05-31T11:36:52.958Z,37.50
2018-05-31T11:39:20.407Z,36.60
2018-05-31T11:41:47.862Z,36.10
2018-05-31T11:44:15.324Z,36.40
2018-05-31T11:46:43.560Z,35.50
2018-05-31T11:49:11.268Z,35.50
2018-05-31T11:51:38.728Z,35.60
2018-05-31T11:54:06.193Z,36.60
2018-05-31T11:56:33.693Z,36.30
2018-05-31T11:59:01.133Z,37.30
2018-05-31T12:01:28.587Z,35.50
2018-05-31T12:03:56.062Z,35.80
2018-05-31T12:06:23.538Z,35.30
2018-05-31T12:08:51.923Z,35.60
2018-05-31T12:11:20.171Z,35.20
2018-05-31T12:13:47.609Z,35.20
2018-05-31T12:16:15.377Z,35.70
2018-05-31T12:18:43.179Z,36.10
2018-05-31T12:21:11.451Z,37.50
2018-05-31T12:23:38.926Z,37.30
2018-05-31T12:26:07.150Z,39.30
2018-05-31T12:28:34.580Z,39.30
2018-05-31T12:31:02.041Z,40.20
2018-05-31T12:33:29.516Z,40.20
2018-05-31T12:35:56.968Z,39.70
2018-05-31T12:38:24.424Z,38.70
2018-05-31T12:40:52.782Z,38.30
2018-05-31T12:43:20.246Z,38.30
2018-05-31T12:45:48.467Z,37.80
2018-05-31T12:48:15.931Z,37.80
2018-05-31T12:50:43.392Z,38.80
2018-05-31T12:53:10.854Z,40.30
2018-05-31T12:55:38.296Z,39.20
2018-05-31T12:58:05.761Z,39.80
2018-05-31T13:00:33.504Z,38.90
2018-05-31T13:03:01.722Z,36.70
2018-05-31T13:05:29.192Z,36.60
2018-05-31T13:07:56.640Z,38.30
2018-05-31T13:10:24.119Z,40.00
2018-05-31T13:12:51.776Z,41.20
2018-05-31T13:15:21.350Z,42.70
2018-05-31T13:17:48.801Z,44.10
2018-05-31T13:20:16.258Z,45.40
2018-05-31T13:22:44.477Z,44.20
2018-05-31T13:25:11.949Z,44.20
2018-05-31T13:27:39.363Z,43.40
2018-05-31T13:30:07.685Z,43.70
2018-05-31T13:32:36.540Z,43.10
2018-05-31T13:35:05.612Z,43.80
2018-05-31T13:37:35.436Z,43.70
2018-05-31T13:40:03.718Z,45.40
2018-05-31T13:42:31.178Z,45.40
2018-05-31T13:44:58.789Z,45.70
2018-05-31T13:47:27.031Z,47.40
2018-05-31T13:49:55.741Z,48.70
2018-05-31T13:52:23.180Z,48.70
2018-05-31T13:54:50.628Z,49.80
2018-05-31T13:57:18.130Z,50.80
2018-05-31T13:59:45.585Z,52.10
2018-05-31T14:02:13.025Z,52.20
2018-05-31T14:04:40.461Z,53.30
2018-05-31T14:07:07.918Z,54.50
2018-05-31T14:09:35.423Z,55.30
2018-05-31T14:12:05.091Z,56.70
2018-05-31T14:14:34.142Z,55.70
2018-05-31T14:17:01.593Z,55.70
2018-05-31T14:19:29.037Z,55.10
2018-05-31T14:21:57.239Z,48.80
2018-05-31T14:24:24.732Z,48.60
2018-05-31T14:26:52.166Z,46.40
2018-05-31T14:29:19.736Z,42.20
2018-05-31T14:31:47.169Z,41.00
2018-05-31T14:34:14.601Z,40.10
2018-05-31T14:36:42.873Z,37.50
2018-05-31T14:39:10.336Z,37.40
2018-05-31T14:41:37.767Z,35.70
2018-05-31T14:44:05.211Z,35.80
2018-05-31T14:46:33.027Z,34.50
2018-05-31T14:49:00.480Z,35.00
2018-05-31T14:51:27.934Z,35.10
2018-05-31T14:53:55.381Z,33.90
2018-05-31T14:56:22.960Z,33.80
2018-05-31T14:58:50.409Z,33.10
2018-05-31T15:01:18.340Z,33.80
2018-05-31T15:03:45.982Z,34.20
2018-05-31T15:06:14.198Z,35.60
2018-05-31T15:08:41.663Z,35.40
2018-05-31T15:11:09.120Z,34.40
2018-05-31T15:13:36.581Z,32.80
2018-05-31T15:16:04.016Z,33.60
2018-05-31T15:18:31.663Z,34.00
2018-05-31T15:20:59.572Z,33.90
2018-05-31T15:23:27.009Z,33.80
2018-05-31T15:25:54.901Z,34.40
2018-05-31T15:28:22.340Z,34.10
2018-05-31T15:30:49.789Z,32.00
2018-05-31T15:33:18.115Z,33.00
2018-05-31T15:35:45.603Z,32.90
2018-05-31T15:38:13.040Z,33.10
2018-05-31T15:40:41.282Z,33.40
2018-05-31T15:43:08.751Z,34.40
2018-05-31T15:45:36.477Z,34.90
2018-05-31T15:48:04.034Z,36.70
2018-05-31T15:50:31.473Z,37.10
2018-05-31T15:52:59.004Z,38.20
2018-05-31T15:55:26.822Z,39.90
2018-05-31T15:57:54.276Z,39.50
2018-05-31T16:00:21.745Z,39.40
2018-05-31T16:02:49.289Z,39.40
2018-05-31T16:05:16.755Z,40.90
2018-05-31T16:07:44.232Z,41.80
2018-05-31T16:10:11.687Z,40.00
2018-05-31T16:12:39.189Z,39.40
2018-05-31T16:15:06.664Z,37.60
2018-05-31T16:17:34.087Z,37.90
2018-05-31T16:20:02.338Z,37.30
2018-05-31T16:22:29.994Z,37.20
2018-05-31T16:24:57.517Z,36.80
2018-05-31T16:27:25.325Z,37.50
2018-05-31T16:29:52.767Z,37.10
2018-05-31T16:32:20.474Z,37.70
2018-05-31T16:34:48.004Z,38.40
2018-05-31T16:37:15.472Z,39.20
2018-05-31T16:39:42.961Z,40.70
2018-05-31T16:42:10.437Z,41.10
2018-05-31T16:44:38.652Z,41.80
2018-05-31T16:47:06.102Z,41.70
2018-05-31T16:49:35.076Z,41.20
2018-05-31T16:52:03.284Z,41.80
2018-05-31T16:54:30.720Z,41.80
2018-05-31T16:56:58.172Z,41.70
2018-05-31T16:59:26.398Z,42.10
2018-05-31T17:01:53.843Z,42.10
2018-05-31T17:04:21.345Z,42.10
2018-05-31T17:06:48.785Z,41.30
2018-05-31T17:09:16.260Z,41.60
2018-05-31T17:11:43.720Z,41.60
2018-05-31T17:14:11.205Z,43.10
2018-05-31T17:16:39.425Z,44.40
2018-05-31T17:19:06.864Z,44.40
2018-05-31T17:21:34.318Z,45.60
2018-05-31T17:24:01.864Z,50.00
2018-05-31T17:26:30.145Z,51.30
2018-05-31T17:28:58.428Z,49.40
2018-05-31T17:31:26.629Z,49.80
2018-05-31T17:33:54.638Z,49.70
2018-05-31T17:36:22.109Z,50.80
2018-05-31T17:38:49.553Z,53.00
2018-05-31T17:41:17.013Z,52.70
2018-05-31T17:43:44.456Z,54.20
2018-05-31T17:46:11.956Z,57.10
2018-05-31T17:48:39.489Z,57.90
2018-05-31T17:51:06.952Z,58.10
2018-05-31T17:53:34.396Z,59.10
2018-05-31T17:56:01.858Z,59.90
2018-05-31T17:58:30.084Z,59.70
2018-05-31T18:00:57.748Z,59.70
2018-05-31T18:03:25.224Z,61.20
2018-05-31T18:05:52.706Z,62.80
2018-05-31T18:08:20.204Z,64.30
2018-05-31T18:10:50.514Z,65.60
2018-05-31T18:13:18.490Z,66.20
2018-05-31T18:15:45.945Z,66.30
2018-05-31T18:18:13.453Z,67.50
2018-05-31T18:20:40.978Z,69.00
2018-05-31T18:23:08.544Z,70.30
2018-05-31T18:25:36.012Z,71.40
2018-05-31T18:28:03.481Z,72.60
2018-05-31T18:30:30.948Z,72.60
2018-05-31T18:33:00.437Z,72.90
2018-05-31T18:35:28.140Z,73.00
2018-05-31T18:37:56.352Z,74.20
2018-05-31T18:40:27.572Z,74.20
2018-05-31T18:42:56.329Z,74.30
2018-05-31T18:45:23.767Z,75.30
2018-05-31T18:47:51.949Z,76.00
2018-05-31T18:50:19.476Z,76.80
2018-05-31T18:52:47.724Z,81.00
2018-05-31T18:55:15.205Z,81.00
2018-05-31T18:57:43.620Z,84.50
2018-05-31T19:00:11.077Z,84.50
2018-05-31T19:02:39.632Z,85.60
2018-05-31T19:05:07.842Z,91.10
2018-05-31T19:07:35.297Z,91.10
2018-05-31T19:10:03.516Z,92.70
2018-05-31T19:12:36.681Z,93.60
2018-05-31T19:15:04.161Z,94.00
2018-05-31T19:17:31.632Z,94.90
2018-05-31T19:19:59.189Z,95.20
2018-05-31T19:22:26.682Z,95.50
2018-05-31T19:25:00.779Z,95.60
2018-05-31T19:27:28.451Z,95.70
2018-05-31T19:30:01.621Z,95.60
2018-05-31T19:32:29.197Z,96.00
2018-05-31T19:34:56.562Z,96.40
2018-05-31T19:37:24.002Z,97.10
2018-05-31T19:39:51.454Z,97.10
2018-05-31T19:42:24.819Z,96.90
2018-05-31T19:44:52.436Z,96.80
2018-05-31T19:47:20.465Z,96.90
2018-05-31T19:49:47.953Z,96.90
2018-05-31T19:52:21.034Z,97.30
2018-05-31T19:54:50.299Z,97.00
2018-05-31T19:57:18.152Z,97.40
2018-05-31T19:59:52.443Z,97.60
2018-05-31T20:02:25.764Z,97.90
2018-05-31T20:04:54.124Z,98.30
2018-05-31T20:07:21.565Z,98.20
2018-05-31T20:09:49.154Z,98.50
2018-05-31T20:12:16.883Z,98.60
2018-05-31T20:14:44.321Z,98.60
2018-05-31T20:17:11.851Z,98.80
2018-05-31T20:19:39.356Z,99.10
2018-05-31T20:22:06.801Z,99.10
2018-05-31T20:24:35.020Z,98.80
2018-05-31T20:27:02.453Z,98.80
2018-05-31T20:29:29.918Z,98.60
2018-05-31T20:31:57.362Z,98.30
2018-05-31T20:34:25.575Z,98.10
2018-05-31T20:36:53.035Z,98.10
2018-05-31T20:39:20.491Z,98.30
2018-05-31T20:41:47.962Z,98.40
2018-05-31T20:44:15.530Z,98.40
2018-05-31T20:46:42.982Z,98.30
2018-05-31T20:49:10.427Z,98.50
2018-05-31T20:51:37.941Z,98.70
2018-05-31T20:54:06.034Z,98.10
2018-05-31T20:56:34.591Z,98.60
2018-05-31T20:59:02.125Z,98.50
2018-05-31T21:01:29.568Z,98.40
2018-05-31T21:03:57.079Z,98.50
2018-05-31T21:06:24.528Z,98.40
2018-05-31T21:08:51.986Z,98.30
2018-05-31T21:11:19.835Z,97.70
2018-05-31T21:13:47.284Z,97.40
2018-05-31T21:16:15.270Z,97.80
2018-05-31T21:18:43.128Z,97.90
2018-05-31T21:21:10.620Z,98.00
2018-05-31T21:23:38.280Z,98.50
2018-05-31T21:26:05.771Z,98.60
2018-05-31T21:28:34.083Z,98.60
2018-05-31T21:31:02.314Z,93.80
2018-05-31T21:33:30.132Z,93.80
2018-05-31T21:35:57.585Z,93.10
2018-05-31T21:38:25.813Z,93.90
2018-05-31T21:40:53.269Z,93.90
2018-05-31T21:43:20.764Z,94.80
2018-05-31T21:45:48.213Z,95.20
2018-05-31T21:48:15.738Z,95.60
2018-05-31T21:50:43.200Z,95.60
2018-05-31T21:53:10.996Z,96.50
2018-05-31T21:55:38.441Z,97.00
2018-05-31T21:58:06.372Z,97.30
2018-05-31T22:00:39.361Z,97.60
2018-05-31T22:03:07.578Z,97.30
2018-05-31T22:05:35.435Z,97.30
2018-05-31T22:08:02.934Z,97.00
2018-05-31T22:10:30.390Z,97.40
2018-05-31T22:12:58.055Z,97.70
2018-05-31T22:15:25.500Z,98.30
2018-05-31T22:17:52.994Z,98.40
2018-05-31T22:20:20.459Z,98.60
2018-05-31T22:22:48.712Z,98.90
2018-05-31T22:25:16.724Z,98.90
2018-05-31T22:27:45.157Z,99.40
2018-05-31T22:30:13.273Z,99.40
2018-05-31T22:32:41.266Z,99.60
2018-05-31T22:35:08.771Z,99.60
2018-05-31T22:37:36.232Z,99.90
2018-05-31T22:40:04.493Z,99.60
2018-05-31T22:42:31.949Z,99.60
2018-05-31T22:44:59.414Z,99.70
2018-05-31T22:47:26.864Z,99.80
2018-05-31T22:49:54.309Z,99.90
2018-05-31T22:52:21.805Z,99.90
2018-05-31T22:54:49.262Z,99.90
2018-05-31T22:57:20.440Z,99.90
2018-05-31T22:59:47.876Z,99.90
2018-05-31T23:02:16.482Z,99.90
2018-05-31T23:04:43.924Z,99.90
2018-05-31T23:07:11.475Z,99.90
2018-05-31T23:09:38.934Z,99.90
2018-05-31T23:12:06.413Z,99.90
2018-05-31T23:14:33.855Z,99.90
2018-05-31T23:17:01.794Z,99.90
2018-05-31T23:19:30.017Z,99.90
2018-05-31T23:21:57.455Z,99.90
2018-05-31T23:24:24.896Z,99.90
2018-05-31T23:26:53.099Z,99.90
2018-05-31T23:29:20.549Z,99.90
2018-05-31T23:31:48.001Z,99.90
2018-05-31T23:34:15.448Z,99.90
2018-05-31T23:36:43.665Z,99.90
2018-05-31T23:39:11.110Z,99.90
2018-05-31T23:41:38.544Z,99.90
2018-05-31T23:44:06.799Z,99.90
2018-05-31T23:46:35.203Z,99.90
2018-05-31T23:49:02.650Z,99.90
2018-05-31T23:51:30.100Z,99.80
2018-05-31T23:53:57.543Z,99.90
2018-05-31T23:56:25.006Z,99.90
2018-05-31T23:58:52.466Z,99.90
